»·PEaware :: SWA1274 KDEN-KABQ

SWA1274 :: KDEN-KABQ

FLIGHT INFORMATION

Flight Status: Arrived
Operator:
Southwest Airlines
More flights by this operator :: More flights under this callsign
Pilot: Anonymous 32031 (32031)
Aircraft: BOEING 737-800
(B738)
More flights by this aircraft type
Origin: KDEN Denver Intl
United States
Destination: KABQ Albuquerque Intl Sunport
United States
More flights between these airports :: More routes between these airports
Route: SUDDZ1 SUDDZ DATME SNDIA3
File this flight plan on PilotEdge
Remarks:
Altitude:
(Current/Filed)
38,000ft
Speed:
(Current/Filed)
457kts
Departed: 30-Dec-20 10:52 AM
Arrived: 30-Dec-20 11:40 AM
Distance/Time
Traveled:
303nm/0:48
Distance/Time
To Go:
Arrived

Flight Plot

Page will automatically refresh every two minutes.

Flight plan parsing failed; only flown route is shown


Map Options




Map Legend


Flown Route
Filed Route
Departure Airport
Arrival Airport
Navaid (VOR, NDB)
Fix

Horizontal Profiles

Position Reports

Time Latitude Longitude Heading Altitude Ground
Speed
30-Dec-20 10:16 39.863577 -104.677366 177 5445ft 0kts
30-Dec-20 10:17 39.863577 -104.677366 177 5445ft 0kts
30-Dec-20 10:18 39.863577 -104.677366 177 5445ft 0kts
30-Dec-20 10:19 39.863577 -104.677366 177 5445ft 0kts
30-Dec-20 10:20 39.863577 -104.677366 177 5445ft 0kts
30-Dec-20 10:21 39.863577 -104.677366 177 5445ft 0kts
30-Dec-20 10:22 39.863577 -104.677366 177 5445ft 0kts
30-Dec-20 10:23 39.863577 -104.677366 177 5445ft 0kts
30-Dec-20 10:24 39.863577 -104.677366 177 5445ft 0kts
30-Dec-20 10:25 39.863577 -104.677366 177 5445ft 0kts
30-Dec-20 10:26 39.863577 -104.677366 177 5445ft 0kts
30-Dec-20 10:27 39.863577 -104.677366 177 5445ft 0kts
30-Dec-20 10:28 39.863577 -104.677366 177 5445ft 0kts
30-Dec-20 10:29 39.863577 -104.677366 177 5445ft 0kts
30-Dec-20 10:30 39.863577 -104.677366 177 5445ft 0kts
30-Dec-20 10:31 39.863577 -104.677366 177 5445ft 0kts
30-Dec-20 10:32 39.863577 -104.677366 177 5445ft 0kts
30-Dec-20 10:33 39.863577 -104.677366 177 5445ft 0kts
30-Dec-20 10:34 39.863577 -104.677366 177 5445ft 0kts
30-Dec-20 10:35 39.863577 -104.677366 177 5445ft 0kts
30-Dec-20 10:36 39.863577 -104.677366 177 5445ft 0kts
30-Dec-20 10:37 39.863577 -104.677366 177 5445ft 0kts
30-Dec-20 10:38 39.863759 -104.677510 153 5445ft 2kts
30-Dec-20 10:39 39.864070 -104.678109 90 5445ft 0kts
30-Dec-20 10:40 39.864070 -104.678142 90 5445ft 0kts
30-Dec-20 10:41 39.864070 -104.678142 90 5445ft 0kts
30-Dec-20 10:42 39.864070 -104.678142 90 5445ft 0kts
30-Dec-20 10:43 39.864070 -104.678142 90 5445ft 0kts
30-Dec-20 10:44 39.864070 -104.678142 90 5445ft 0kts
30-Dec-20 10:45 39.864495 -104.675748 75 5445ft 15kts
30-Dec-20 10:46 39.864722 -104.670721 90 5445ft 15kts
30-Dec-20 10:47 39.863771 -104.665743 180 5445ft 12kts
30-Dec-20 10:48 39.861106 -104.665193 103 5445ft 12kts
30-Dec-20 10:49 39.861045 -104.661747 89 5445ft 0kts
30-Dec-20 10:50 39.861043 -104.660887 90 5445ft 10kts
30-Dec-20 10:51 39.842600 -104.660424 181 5595ft 171kts
30-Dec-20 10:52 39.793510 -104.661237 183 8087ft 210kts
30-Dec-20 10:53 39.722102 -104.662026 183 9894ft 296kts
30-Dec-20 10:54 39.639400 -104.665226 190 10776ft 316kts
30-Dec-20 10:55 39.544315 -104.690757 193 12971ft 368kts
30-Dec-20 10:56 39.443221 -104.725383 197 15844ft 387kts
30-Dec-20 10:57 39.337535 -104.763386 197 18455ft 404kts
30-Dec-20 10:58 39.227452 -104.802671 197 20869ft 419kts
30-Dec-20 10:59 39.112623 -104.842286 196 22982ft 435kts
30-Dec-20 11:00 38.995781 -104.887323 199 25045ft 444kts
30-Dec-20 11:01 38.877081 -104.933646 198 27035ft 449kts
30-Dec-20 11:02 38.756134 -104.980542 198 28429ft 463kts
30-Dec-20 11:03 38.631023 -105.028591 198 29761ft 475kts
30-Dec-20 11:04 38.503220 -105.077490 198 31158ft 483kts
30-Dec-20 11:06 38.374231 -105.126817 197 32541ft 489kts
30-Dec-20 11:07 38.244019 -105.176344 197 34043ft 489kts
30-Dec-20 11:08 38.114266 -105.225518 197 35544ft 487kts
30-Dec-20 11:09 37.984948 -105.274409 197 36944ft 486kts
30-Dec-20 11:10 37.859669 -105.337087 207 38153ft 485kts
30-Dec-20 11:11 37.738147 -105.414454 208 38241ft 491kts
30-Dec-20 11:12 37.617745 -105.493537 209 38245ft 487kts
30-Dec-20 11:13 37.498087 -105.572587 209 38246ft 490kts
30-Dec-20 11:14 37.376985 -105.652469 208 38244ft 490kts
30-Dec-20 11:15 37.256987 -105.731478 208 38249ft 489kts
30-Dec-20 11:16 37.136635 -105.810309 209 38250ft 489kts
30-Dec-20 11:17 37.016814 -105.888584 209 38249ft 479kts
30-Dec-20 11:18 36.901267 -105.963738 209 38259ft 467kts
30-Dec-20 11:19 36.784834 -106.039230 209 38253ft 472kts
30-Dec-20 11:19 36.687734 -106.101626 205 38255ft 473kts
30-Dec-20 11:20 36.564780 -106.159583 201 38024ft 479kts
30-Dec-20 11:21 36.440944 -106.215251 201 35772ft 468kts
30-Dec-20 11:22 36.318221 -106.269863 200 32536ft 473kts
30-Dec-20 11:24 36.174691 -106.332966 200 28910ft 463kts
30-Dec-20 11:24 36.075708 -106.376240 200 26769ft 446kts
30-Dec-20 11:26 35.943125 -106.433299 200 24222ft 414kts
30-Dec-20 11:26 35.855667 -106.469970 199 22917ft 390kts
30-Dec-20 11:27 35.754280 -106.511214 199 20929ft 377kts
30-Dec-20 11:28 35.657177 -106.550752 198 18527ft 361kts
30-Dec-20 11:29 35.564984 -106.591717 204 15744ft 343kts
30-Dec-20 11:30 35.482285 -106.636506 204 14087ft 304kts
30-Dec-20 11:31 35.404580 -106.678392 203 12544ft 302kts
30-Dec-20 11:32 35.326902 -106.718344 190 10981ft 299kts
30-Dec-20 11:33 35.258954 -106.677964 118 9514ft 275kts
30-Dec-20 11:34 35.222816 -106.603487 132 9042ft 240kts
30-Dec-20 11:35 35.165354 -106.563372 152 8641ft 237kts
30-Dec-20 11:36 35.106034 -106.526277 152 7507ft 231kts
30-Dec-20 11:37 35.054485 -106.512491 216 6478ft 170kts
30-Dec-20 11:38 35.043910 -106.561925 272 5673ft 156kts
30-Dec-20 11:39 35.044209 -106.594605 267 5329ft 25kts
30-Dec-20 11:40 35.045417 -106.599306 298 5326ft 12kts
30-Dec-20 11:41 35.045798 -106.608829 270 5323ft 32kts
30-Dec-20 11:42 35.046791 -106.613128 1 5322ft 10kts
30-Dec-20 11:43 35.047355 -106.613885 272 5320ft 0kts
30-Dec-20 11:44 35.047355 -106.613885 272 5320ft 0kts

Navigation Log

Ident Type
Flight plan parsing failed, navigation log unavailable